Time;durP1;ratioP1;P1;durP2;ratioP2;P2;SDS_P1;SDS_P2;PMS_P1;PMS_P2;Temp;Humidity;BMP_temperature;BMP_pressure;BME280_temperature;BME280_humidity;BME280_pressure;Samples;Min_cycle;Max_cycle;Signal;HPM_P1;HPM_P2
2024/03/27 00:02:02;;;;;;;3.13;1.77;;;;;;;13.00;53.12;98345.41;4959397;28;20173;-85
2024/03/27 00:04:27;;;;;;;2.53;1.45;;;;;;;12.98;52.78;98329.03;4959296;28;20034;-84
2024/03/27 00:06:53;;;;;;;2.75;1.50;;;;;;;13.02;52.95;98343.47;4943263;28;20037;-84
2024/03/27 00:09:18;;;;;;;2.95;1.70;;;;;;;13.01;53.01;98327.88;4975472;28;20030;-84
2024/03/27 00:11:44;;;;;;;2.65;1.90;;;;;;;12.99;52.70;98328.03;4975011;28;20065;-84
2024/03/27 00:14:11;;;;;;;2.58;1.65;;;;;;;13.00;52.63;98334.94;4943360;28;20026;-85
2024/03/27 00:16:37;;;;;;;3.15;1.52;;;;;;;13.03;52.68;98337.28;4978550;28;20038;-85
2024/03/27 00:19:02;;;;;;;2.60;1.65;;;;;;;13.02;52.98;98337.41;4979448;28;20117;-85
2024/03/27 00:21:28;;;;;;;3.65;1.75;;;;;;;13.00;52.65;98336.72;4946916;28;20034;-84
2024/03/27 00:23:54;;;;;;;4.97;1.80;;;;;;;12.98;52.73;98342.13;4963030;28;20058;-83
2024/03/27 00:26:20;;;;;;;3.28;1.90;;;;;;;12.97;52.83;98337.84;4962736;28;20034;-84
2024/03/27 00:28:45;;;;;;;4.30;1.70;;;;;;;12.98;52.69;98330.78;4962928;28;20486;-84
2024/03/27 00:31:11;;;;;;;3.60;1.75;;;;;;;12.97;52.58;98331.78;4979096;28;20037;-84
2024/03/27 00:33:36;;;;;;;3.75;1.63;;;;;;;12.94;52.53;98325.03;4947053;28;20035;-85
2024/03/27 00:36:02;;;;;;;3.17;1.75;;;;;;;12.99;52.70;98333.28;4979031;28;20030;-84
2024/03/27 00:38:27;;;;;;;3.30;1.92;;;;;;;12.96;52.43;98317.00;4962022;28;20066;-84
2024/03/27 00:40:53;;;;;;;3.28;2.00;;;;;;;13.00;52.22;98326.25;4978911;28;20429;-84
2024/03/27 00:43:19;;;;;;;2.42;1.73;;;;;;;12.99;52.00;98322.78;4962400;28;20039;-85
2024/03/27 00:45:44;;;;;;;3.35;2.00;;;;;;;12.99;51.91;98330.66;4978778;28;20125;-85
2024/03/27 00:48:10;;;;;;;2.97;1.70;;;;;;;12.99;52.05;98320.16;4962215;28;20054;-85
2024/03/27 00:50:36;;;;;;;3.80;1.80;;;;;;;12.92;52.22;98308.63;4978661;28;20091;-85
2024/03/27 00:53:02;;;;;;;3.95;2.00;;;;;;;12.94;52.02;98317.16;4962829;28;20049;-84
2024/03/27 00:55:27;;;;;;;4.45;1.92;;;;;;;12.97;52.18;98321.28;4946753;28;20074;-85
2024/03/27 00:57:53;;;;;;;3.45;1.85;;;;;;;12.97;52.08;98327.34;4979547;28;20100;-85
2024/03/27 01:00:19;;;;;;;5.15;2.28;;;;;;;12.93;52.28;98322.53;4963868;28;20038;-76
2024/03/27 01:02:47;;;;;;;5.28;2.00;;;;;;;12.91;52.64;98319.25;4957734;28;20031;-84
2024/03/27 01:05:13;;;;;;;5.60;2.22;;;;;;;12.89;52.36;98323.78;4943991;28;20399;-85
2024/03/27 01:07:38;;;;;;;3.95;1.80;;;;;;;12.94;52.46;98326.81;4959594;28;20089;-84
2024/03/27 01:10:11;;;;;;;3.65;2.10;;;;;;;12.92;52.65;98326.13;4974456;28;20031;-85
2024/03/27 01:12:40;;;;;;;5.40;2.20;;;;;;;12.90;52.72;98328.06;4956193;28;20041;-86
2024/03/27 01:15:09;;;;;;;5.00;2.40;;;;;;;12.90;52.46;98325.44;4953700;28;20031;-89
2024/03/27 01:17:34;;;;;;;2.65;1.70;;;;;;;12.87;52.26;98317.88;4953669;28;20032;-89
2024/03/27 01:20:00;;;;;;;3.50;2.10;;;;;;;12.92;52.44;98323.50;4960484;28;20034;-84
2024/03/27 01:22:26;;;;;;;5.03;2.63;;;;;;;12.92;52.34;98318.25;4943870;28;20034;-84
2024/03/27 01:24:51;;;;;;;3.92;1.80;;;;;;;12.88;51.93;98309.88;4976747;28;20458;-82
2024/03/27 01:27:18;;;;;;;4.15;2.03;;;;;;;12.88;51.63;98301.19;4959241;28;20486;-82
2024/03/27 01:29:43;;;;;;;3.05;1.80;;;;;;;12.88;51.71;98299.38;4959322;28;20034;-86
2024/03/27 01:32:09;;;;;;;4.28;2.22;;;;;;;12.84;51.85;98284.94;4959306;28;20462;-83
2024/03/27 01:34:34;;;;;;;4.57;2.00;;;;;;;12.83;52.14;98286.72;4959470;28;20033;-85
2024/03/27 01:37:00;;;;;;;6.13;2.35;;;;;;;12.84;52.06;98284.94;4943481;28;20046;-82
2024/03/27 01:39:25;;;;;;;4.72;2.00;;;;;;;12.78;51.75;98270.59;4959283;28;20034;-84
2024/03/27 01:41:54;;;;;;;3.10;1.98;;;;;;;12.79;51.87;98277.50;4943129;28;20034;-83
2024/03/27 01:44:20;;;;;;;2.42;1.80;;;;;;;12.79;51.95;98280.13;4943942;28;20099;-83
2024/03/27 01:46:47;;;;;;;4.57;1.98;;;;;;;12.76;52.11;98277.78;4943192;28;20041;-82
2024/03/27 01:49:13;;;;;;;4.25;1.95;;;;;;;12.76;51.68;98276.94;4976462;28;20510;-84
2024/03/27 01:51:39;;;;;;;2.75;1.70;;;;;;;12.74;52.16;98276.28;4926770;28;20533;-80
2024/03/27 01:54:04;;;;;;;4.28;1.80;;;;;;;12.72;52.13;98278.22;4958732;28;20035;-87
2024/03/27 01:56:32;;;;;;;2.55;1.65;;;;;;;12.66;52.08;98272.56;4942923;28;20069;-82
2024/03/27 01:58:59;;;;;;;2.90;1.70;;;;;;;12.63;52.28;98274.63;4959103;28;20035;-82
2024/03/27 02:01:25;;;;;;;2.42;1.67;;;;;;;12.57;52.01;98264.72;4942670;28;20038;-82
2024/03/27 02:03:50;;;;;;;2.65;1.65;;;;;;;12.55;52.00;98269.28;4959140;28;20030;-82
2024/03/27 02:06:15;;;;;;;2.67;1.70;;;;;;;12.49;52.39;98258.41;4942878;28;20042;-83
2024/03/27 02:08:41;;;;;;;2.22;1.65;;;;;;;12.51;52.27;98263.50;4943089;28;20089;-82
2024/03/27 02:11:07;;;;;;;4.40;1.45;;;;;;;12.50;52.11;98272.31;4958613;28;20062;-82
2024/03/27 02:13:33;;;;;;;2.42;1.55;;;;;;;12.48;52.10;98264.63;4942376;28;20398;-82
2024/03/27 02:15:59;;;;;;;2.25;1.48;;;;;;;12.44;51.50;98260.59;4958509;28;20037;-82
2024/03/27 02:18:25;;;;;;;2.60;1.60;;;;;;;12.48;51.85;98262.00;4943057;28;20398;-82
2024/03/27 02:20:50;;;;;;;2.60;1.63;;;;;;;12.46;51.63;98253.47;4957377;28;20047;-82
2024/03/27 02:23:16;;;;;;;2.67;1.50;;;;;;;12.42;51.42;98251.25;4942126;28;20035;-82
2024/03/27 02:26:03;;;;;;;2.15;1.40;;;;;;;12.39;51.47;98244.50;4942561;28;20406;-82
2024/03/27 02:28:28;;;;;;;2.13;1.45;;;;;;;12.43;51.51;98261.59;4941928;28;20038;-86
2024/03/27 02:30:54;;;;;;;3.13;1.65;;;;;;;12.40;50.88;98245.34;4926109;28;20129;-80
2024/03/27 02:33:19;;;;;;;3.28;1.60;;;;;;;12.43;50.86;98263.38;4941747;28;20039;-83
2024/03/27 02:35:45;;;;;;;3.05;1.50;;;;;;;12.40;50.75;98264.50;4926071;28;20038;-82
2024/03/27 02:38:10;;;;;;;3.10;1.67;;;;;;;12.40;50.84;98253.22;4956404;28;20050;-82
2024/03/27 02:40:36;;;;;;;3.33;1.58;;;;;;;12.41;51.01;98275.78;4942289;28;20508;-82
2024/03/27 02:43:01;;;;;;;2.58;1.48;;;;;;;12.41;50.70;98279.25;4957873;28;20097;-83
2024/03/27 02:45:27;;;;;;;3.08;1.52;;;;;;;12.37;51.00;98272.63;4926262;28;20038;-83
2024/03/27 02:47:55;;;;;;;2.38;1.60;;;;;;;12.38;50.69;98276.91;4957762;28;20039;-83
2024/03/27 02:50:21;;;;;;;;;;;;;;;12.40;50.40;98274.16;4942473;28;20451;-86
2024/03/27 02:52:46;;;;;;;2.85;1.60;;;;;;;12.36;50.63;98275.38;4958120;28;19964;-87
2024/03/27 02:55:15;;;;;;;2.25;1.52;;;;;;;12.36;50.66;98272.75;4958075;28;20458;-82
2024/03/27 02:57:40;;;;;;;4.32;1.38;;;;;;;12.33;50.76;98271.25;4942580;28;20081;-83
2024/03/27 03:00:10;;;;;;;2.50;1.52;;;;;;;12.33;51.19;98273.03;4942096;28;20034;-86
2024/03/27 03:02:36;;;;;;;2.30;1.63;;;;;;;12.30;51.17;98277.59;4975773;28;20062;-85
2024/03/27 03:05:02;;;;;;;2.95;1.40;;;;;;;12.31;51.26;98270.56;4941985;28;20031;-85
2024/03/27 03:07:28;;;;;;;2.80;1.70;;;;;;;12.31;51.09;98268.75;4958992;28;20069;-81
2024/03/27 03:09:53;;;;;;;2.90;1.48;;;;;;;12.27;51.08;98262.19;4947673;28;20027;-84
2024/03/27 03:12:19;;;;;;;3.72;1.50;;;;;;;12.33;51.37;98271.25;4947692;28;20042;-85
2024/03/27 03:14:44;;;;;;;3.72;1.70;;;;;;;12.25;51.28;98268.50;4957914;28;20081;-86
2024/03/27 03:17:10;;;;;;;4.07;1.70;;;;;;;12.31;51.17;98273.19;4942820;28;20410;-81
2024/03/27 03:19:36;;;;;;;2.00;1.40;;;;;;;12.26;51.75;98267.53;4944360;28;20026;-85
2024/03/27 03:22:04;;;;;;;2.40;1.63;;;;;;;12.24;51.48;98272.06;4963661;28;20031;-82
2024/03/27 03:24:29;;;;;;;3.20;1.73;;;;;;;12.28;51.51;98276.06;4948799;28;20077;-83
2024/03/27 03:26:55;;;;;;;3.10;1.50;;;;;;;12.27;51.38;98269.19;4943601;28;20039;-83
2024/03/27 03:29:21;;;;;;;2.00;1.42;;;;;;;12.23;51.42;98267.81;4926424;28;20054;-84
2024/03/27 03:31:46;;;;;;;3.78;1.77;;;;;;;12.23;51.56;98275.66;4942256;28;20391;-83
2024/03/27 03:34:12;;;;;;;2.35;1.75;;;;;;;12.21;51.57;98273.19;4974820;28;20498;-84
2024/03/27 03:36:38;;;;;;;2.85;1.75;;;;;;;12.18;51.87;98263.00;4942058;28;20027;-83
2024/03/27 03:39:04;;;;;;;2.83;1.80;;;;;;;12.23;52.10;98259.97;4942625;28;20039;-83
2024/03/27 03:41:29;;;;;;;3.72;1.63;;;;;;;12.24;51.88;98261.59;4942087;28;20034;-83
2024/03/27 03:43:55;;;;;;;2.58;1.52;;;;;;;12.23;51.74;98263.41;4974507;28;20038;-88
2024/03/27 03:46:20;;;;;;;2.65;1.90;;;;;;;12.24;51.93;98259.84;4941000;28;20039;-83
2024/03/27 03:48:46;;;;;;;5.15;2.00;;;;;;;12.21;52.29;98261.91;4940848;28;20066;-83
2024/03/27 03:51:11;;;;;;;2.33;1.70;;;;;;;12.20;51.69;98255.00;4957079;28;20479;-83
2024/03/27 03:53:37;;;;;;;3.08;1.65;;;;;;;12.18;52.55;98265.63;4957290;28;20107;-84
2024/03/27 03:56:02;;;;;;;2.55;1.42;;;;;;;12.18;52.29;98272.66;4940970;28;20097;-83
2024/03/27 03:58:28;;;;;;;1.98;1.50;;;;;;;12.17;52.27;98268.38;4940183;28;20595;-84
2024/03/27 04:00:54;;;;;;;3.53;1.88;;;;;;;12.15;52.47;98265.06;4941316;28;20399;-85
2024/03/27 04:03:20;;;;;;;3.22;1.80;;;;;;;12.18;52.37;98272.66;4926295;28;20034;-86
2024/03/27 04:05:46;;;;;;;5.95;2.08;;;;;;;12.16;52.58;98261.47;4957580;28;20027;-84
2024/03/27 04:08:11;;;;;;;3.30;1.98;;;;;;;12.12;52.64;98264.38;4957417;28;20031;-87
2024/03/27 04:10:43;;;;;;;3.22;1.85;;;;;;;12.10;52.27;98266.31;4925619;28;20058;-86
2024/03/27 04:13:08;;;;;;;3.80;1.95;;;;;;;12.12;52.23;98259.13;4925246;28;20144;-85
2024/03/27 04:15:40;;;;;;;3.03;2.00;;;;;;;12.06;52.07;98264.09;4941320;28;20150;-82
2024/03/27 04:18:06;;;;;;;2.83;2.15;;;;;;;12.11;52.48;98275.81;4957563;28;20110;-83
2024/03/27 04:20:31;;;;;;;4.78;2.30;;;;;;;12.10;52.21;98278.56;4957225;28;20418;-83
2024/03/27 04:22:57;;;;;;;3.10;2.08;;;;;;;12.16;52.08;98288.50;4925109;28;20194;-84
2024/03/27 04:25:23;;;;;;;3.85;2.10;;;;;;;12.14;52.12;98285.16;4940976;28;20467;-88
2024/03/27 04:27:49;;;;;;;4.10;2.10;;;;;;;12.16;52.12;98290.25;4940516;28;20475;-83
2024/03/27 04:30:16;;;;;;;3.58;2.50;;;;;;;12.13;52.23;98288.75;4940869;28;20050;-88
2024/03/27 04:32:42;;;;;;;4.05;2.38;;;;;;;12.18;51.90;98301.44;4941272;28;20031;-82
2024/03/27 04:35:08;;;;;;;2.72;2.15;;;;;;;12.22;52.09;98305.41;4956664;28;20385;-80
2024/03/27 04:37:34;;;;;;;4.25;2.60;;;;;;;12.19;51.69;98290.84;4957961;28;20054;-80
2024/03/27 04:40:09;;;;;;;3.60;2.20;;;;;;;12.26;51.81;98298.94;4975158;28;20037;-76
2024/03/27 04:42:38;;;;;;;3.63;2.30;;;;;;;12.37;53.35;98290.13;4976843;28;20026;-76
2024/03/27 04:45:10;;;;;;;;;;;;;;;12.41;53.28;98286.25;4975905;28;20473;-76
2024/03/27 04:47:36;;;;;;;4.18;2.20;;;;;;;12.42;52.55;98280.88;4990778;28;19914;-81
2024/03/27 04:50:02;;;;;;;4.88;2.10;;;;;;;12.58;54.10;98284.72;4939448;28;20062;-76
2024/03/27 04:52:30;;;;;;;6.63;2.47;;;;;;;12.76;54.50;98287.41;4955926;28;20034;-76
2024/03/27 04:54:55;;;;;;;4.30;2.60;;;;;;;12.99;53.40;98280.06;4971971;28;20466;-75
2024/03/27 04:57:21;;;;;;;5.45;2.42;;;;;;;13.48;54.79;98282.47;4972356;28;20278;-75
2024/03/27 04:59:46;;;;;;;4.43;2.72;;;;;;;13.77;52.79;98276.22;4971580;28;20069;-75
2024/03/27 05:02:12;;;;;;;5.85;2.22;;;;;;;13.78;56.12;98272.66;4941653;28;20218;-76
2024/03/27 05:04:37;;;;;;;4.63;2.53;;;;;;;14.11;53.31;98294.75;4976285;28;20102;-75
2024/03/27 05:07:06;;;;;;;4.30;2.70;;;;;;;14.53;52.16;98295.91;4975338;28;20066;-76
2024/03/27 05:09:31;;;;;;;4.93;2.70;;;;;;;14.54;50.98;98289.69;4974553;28;20081;-75
2024/03/27 05:12:04;;;;;;;4.63;2.92;;;;;;;14.62;50.46;98295.84;4958410;28;20490;-76
2024/03/27 05:14:30;;;;;;;5.38;2.72;;;;;;;14.67;49.59;98305.91;4975446;28;20501;-70
2024/03/27 05:16:58;;;;;;;4.63;3.15;;;;;;;14.80;48.59;98290.56;4959494;28;20039;-85
2024/03/27 05:19:24;;;;;;;4.28;2.83;;;;;;;14.99;48.17;98289.50;4961335;28;20109;-77
2024/03/27 05:21:50;;;;;;;7.10;3.17;;;;;;;15.14;47.34;98289.75;4962900;28;20390;-81
2024/03/27 05:24:16;;;;;;;4.40;2.70;;;;;;;15.31;49.18;98293.28;4980703;28;20058;-87
2024/03/27 05:26:42;;;;;;;9.70;2.42;;;;;;;15.66;50.23;98287.97;4965205;28;20050;-84
2024/03/27 05:29:08;;;;;;;7.25;3.30;;;;;;;15.80;47.80;98297.09;4946215;28;20030;-88
2024/03/27 05:31:47;;;;;;;7.45;2.90;;;;;;;15.79;47.42;98292.81;4984238;28;20043;-84
2024/03/27 05:34:12;;;;;;;5.38;3.03;;;;;;;15.87;46.47;98295.44;4978040;28;20027;-83
2024/03/27 05:36:38;;;;;;;4.95;2.90;;;;;;;16.26;45.26;98295.66;4960287;28;20043;-86
2024/03/27 05:39:03;;;;;;;4.28;2.78;;;;;;;17.21;42.90;98282.84;4975967;28;20039;-86
2024/03/27 05:41:29;;;;;;;4.88;3.15;;;;;;;18.16;40.81;98298.53;4958888;28;20043;-84
2024/03/27 05:43:55;;;;;;;5.30;3.20;;;;;;;18.37;40.10;98297.03;4943856;28;20035;-88
2024/03/27 05:46:21;;;;;;;4.50;2.95;;;;;;;18.39;39.73;98293.22;4946081;28;20166;-88
2024/03/27 05:48:46;;;;;;;4.80;2.85;;;;;;;19.13;38.23;98287.25;4978068;28;20054;-86
2024/03/27 05:51:17;;;;;;;4.85;2.90;;;;;;;20.01;36.59;98284.63;4975513;28;20035;-79
2024/03/27 05:53:42;;;;;;;4.57;2.53;;;;;;;20.70;35.20;98292.97;4959010;28;20471;-81
2024/03/27 05:56:10;;;;;;;6.43;2.58;;;;;;;21.15;34.38;98291.63;4976454;28;20027;-81
2024/03/27 05:58:38;;;;;;;4.03;2.30;;;;;;;21.40;33.64;98282.38;4974683;28;20031;-81
2024/03/27 06:01:06;;;;;;;5.07;2.72;;;;;;;21.26;33.17;98295.56;4972935;28;20042;-78
2024/03/27 06:03:32;;;;;;;3.95;2.67;;;;;;;21.07;33.19;98277.72;4956563;28;20403;-81
2024/03/27 06:05:57;;;;;;;4.32;2.53;;;;;;;21.01;33.15;98297.06;4957646;28;20122;-83
2024/03/27 06:08:23;;;;;;;5.82;2.85;;;;;;;20.95;33.17;98293.34;4942900;28;20042;-84
2024/03/27 06:10:48;;;;;;;5.30;3.00;;;;;;;20.75;33.33;98290.59;4942929;28;20031;-83
2024/03/27 06:13:14;;;;;;;9.48;3.38;;;;;;;20.70;33.29;98291.16;4943623;28;20035;-83
2024/03/27 06:15:39;;;;;;;7.78;3.70;;;;;;;20.62;33.65;98293.94;4942702;28;20062;-84
2024/03/27 06:18:05;;;;;;;5.50;3.92;;;;;;;20.81;33.03;98288.97;4974987;28;20049;-83
2024/03/27 06:20:35;;;;;;;6.68;3.50;;;;;;;20.44;33.61;98283.78;4961967;28;20398;-82
2024/03/27 06:23:00;;;;;;;9.00;4.18;;;;;;;20.04;34.15;98300.13;4942778;28;20449;-83
2024/03/27 06:25:26;;;;;;;6.80;4.32;;;;;;;19.59;34.75;98293.28;4958251;28;20023;-84
2024/03/27 06:27:52;;;;;;;6.03;3.78;;;;;;;19.26;35.15;98299.84;4958574;28;20477;-83
2024/03/27 06:30:17;;;;;;;7.05;3.53;;;;;;;18.92;35.44;98298.53;4942099;28;20066;-83
2024/03/27 06:32:44;;;;;;;6.10;3.30;;;;;;;18.65;36.21;98297.28;4959066;28;20035;-84
2024/03/27 06:35:09;;;;;;;6.93;3.65;;;;;;;18.39;36.62;98301.16;4974461;28;20026;-81
2024/03/27 06:37:35;;;;;;;4.80;3.00;;;;;;;18.15;37.24;98304.78;4974969;28;20038;-84
2024/03/27 06:40:00;;;;;;;5.25;2.72;;;;;;;17.90;37.47;98299.69;4974872;28;20417;-83
2024/03/27 06:42:27;;;;;;;4.28;2.90;;;;;;;17.71;38.09;98300.94;4958056;28;20038;-84
2024/03/27 06:44:53;;;;;;;4.28;2.70;;;;;;;17.47;38.48;98290.47;4942874;28;20398;-84
2024/03/27 06:47:19;;;;;;;4.22;2.63;;;;;;;17.27;38.95;98306.72;4959688;28;20031;-85
2024/03/27 06:49:48;;;;;;;3.33;2.40;;;;;;;16.95;39.44;98300.56;4960089;28;20078;-85
2024/03/27 06:52:14;;;;;;;3.58;2.78;;;;;;;16.80;40.15;98310.94;4958170;28;20031;-85
2024/03/27 06:54:39;;;;;;;5.18;2.60;;;;;;;16.66;40.60;98311.59;4959235;28;20042;-82
2024/03/27 06:57:05;;;;;;;6.93;2.75;;;;;;;16.54;40.95;98313.78;4958347;28;20105;-81
2024/03/27 06:59:30;;;;;;;3.70;2.70;;;;;;;16.43;41.14;98312.28;4957331;28;20453;-79
2024/03/27 07:01:56;;;;;;;5.03;2.78;;;;;;;16.30;41.38;98309.31;4957545;28;20559;-80
2024/03/27 07:04:21;;;;;;;4.15;2.63;;;;;;;16.13;41.85;98310.28;4973380;28;20038;-80
2024/03/27 07:06:47;;;;;;;5.97;3.10;;;;;;;16.02;42.25;98316.69;4957262;28;20026;-82
2024/03/27 07:09:12;;;;;;;4.15;2.60;;;;;;;15.92;42.66;98314.19;4957329;28;20030;-80
2024/03/27 07:11:38;;;;;;;7.47;3.10;;;;;;;15.84;42.89;98315.00;4957321;28;20035;-78
2024/03/27 07:14:03;;;;;;;9.95;3.45;;;;;;;15.77;43.30;98313.19;4956976;28;20035;-80
2024/03/27 07:16:29;;;;;;;5.82;3.00;;;;;;;15.77;43.55;98323.72;4957478;28;20093;-81
2024/03/27 07:18:54;;;;;;;4.85;3.00;;;;;;;15.68;43.98;98321.00;4957308;28;20501;-80
2024/03/27 07:21:20;;;;;;;5.75;2.78;;;;;;;15.64;44.21;98321.50;4956989;28;20039;-80
2024/03/27 07:23:46;;;;;;;5.05;3.00;;;;;;;15.60;44.51;98325.44;4957123;28;20037;-80
2024/03/27 07:26:11;;;;;;;5.63;2.85;;;;;;;15.53;44.71;98317.38;4957363;28;20035;-80
2024/03/27 07:28:37;;;;;;;6.15;3.00;;;;;;;15.56;44.96;98327.56;4973671;28;20030;-81
2024/03/27 07:31:03;;;;;;;5.35;3.38;;;;;;;15.53;45.15;98315.56;4972385;28;20043;-83
2024/03/27 07:33:28;;;;;;;5.38;3.10;;;;;;;15.59;44.97;98324.59;4944117;28;20038;-84
2024/03/27 07:35:54;;;;;;;6.20;3.20;;;;;;;15.64;44.84;98318.88;4961356;28;20033;-80
2024/03/27 07:38:23;;;;;;;7.75;3.00;;;;;;;15.69;44.94;98314.78;4957509;28;20039;-82
2024/03/27 07:40:48;;;;;;;5.72;3.13;;;;;;;15.69;45.03;98321.88;4956872;28;20031;-81
2024/03/27 07:43:14;;;;;;;8.07;3.63;;;;;;;15.78;44.89;98317.47;4957697;28;20030;-80
2024/03/27 07:45:39;;;;;;;6.85;3.38;;;;;;;15.85;44.75;98313.22;4958335;28;20087;-83
2024/03/27 07:48:05;;;;;;;6.20;3.45;;;;;;;16.07;44.55;98304.69;4943726;28;20531;-79
2024/03/27 07:50:31;;;;;;;9.13;4.25;;;;;;;16.46;43.74;98305.84;4959949;28;20034;-81
2024/03/27 07:52:56;;;;;;;9.77;4.20;;;;;;;16.63;43.75;98306.66;4959464;28;20044;-80
2024/03/27 07:55:22;;;;;;;10.20;3.85;;;;;;;16.82;43.43;98314.25;4959383;28;20085;-79
2024/03/27 07:57:47;;;;;;;11.80;3.25;;;;;;;16.97;42.89;98306.47;4959612;28;20030;-80
2024/03/27 08:00:15;;;;;;;7.60;3.50;;;;;;;17.13;42.68;98315.34;4974819;28;20417;-80
2024/03/27 08:02:40;;;;;;;4.90;3.00;;;;;;;17.32;42.30;98320.22;4976325;28;20034;-79
2024/03/27 08:05:06;;;;;;;6.07;2.92;;;;;;;17.92;41.43;98314.50;4959889;28;20492;-79
2024/03/27 08:07:33;;;;;;;5.07;2.78;;;;;;;18.24;40.69;98311.66;4959460;28;20104;-82
2024/03/27 08:09:58;;;;;;;4.90;3.03;;;;;;;18.44;40.66;98312.00;4960493;28;20105;-83
2024/03/27 08:12:23;;;;;;;4.75;3.20;;;;;;;18.35;40.26;98315.72;4944212;28;20130;-80
2024/03/27 08:14:49;;;;;;;4.45;2.78;;;;;;;18.38;40.33;98315.34;4960303;28;20576;-81
2024/03/27 08:17:14;;;;;;;4.55;2.97;;;;;;;18.49;39.97;98314.13;4960212;28;20141;-80
2024/03/27 08:19:40;;;;;;;4.38;2.60;;;;;;;18.56;39.60;98309.75;4976680;28;20065;-82
2024/03/27 08:22:06;;;;;;;6.43;2.90;;;;;;;18.77;39.24;98311.72;4960598;28;20033;-82
2024/03/27 08:24:32;;;;;;;4.70;2.70;;;;;;;19.07;38.89;98303.00;4961066;28;20026;-82
2024/03/27 08:26:57;;;;;;;3.85;2.50;;;;;;;19.69;38.40;98305.25;4994604;28;20102;-83
2024/03/27 08:29:23;;;;;;;4.47;2.85;;;;;;;19.71;37.21;98307.69;4960604;28;20031;-82
2024/03/27 08:31:48;;;;;;;4.15;2.72;;;;;;;19.31;37.67;98308.03;4976338;28;20054;-82
2024/03/27 08:34:14;;;;;;;9.05;3.28;;;;;;;19.55;37.18;98316.69;4961444;28;20560;-81
2024/03/27 08:36:39;;;;;;;4.70;2.83;;;;;;;19.71;36.87;98307.69;4961580;28;20034;-81
2024/03/27 08:39:07;;;;;;;5.72;3.00;;;;;;;19.69;37.04;98313.19;4980320;28;20489;-80
2024/03/27 08:41:32;;;;;;;9.88;3.70;;;;;;;19.70;36.40;98303.41;4963934;28;20154;-81
2024/03/27 08:43:58;;;;;;;7.07;3.25;;;;;;;19.77;36.54;98304.34;4962344;28;20038;-81
2024/03/27 08:46:23;;;;;;;7.57;2.95;;;;;;;19.91;36.49;98310.63;4979228;28;20476;-82
2024/03/27 08:48:50;;;;;;;9.05;2.95;;;;;;;20.00;36.44;98313.94;4963392;28;20057;-80
2024/03/27 08:51:15;;;;;;;5.80;2.50;;;;;;;20.22;36.04;98301.53;4962937;28;20133;-80
2024/03/27 08:53:41;;;;;;;7.90;2.47;;;;;;;20.69;35.41;98292.16;4979261;28;20045;-82
2024/03/27 08:56:07;;;;;;;6.00;2.67;;;;;;;21.34;34.80;98294.59;4980365;28;20030;-80
2024/03/27 08:58:33;;;;;;;6.90;2.78;;;;;;;21.71;33.76;98279.22;4997271;28;20404;-81
2024/03/27 09:00:58;;;;;;;5.80;2.72;;;;;;;22.37;32.54;98285.69;4962157;28;20034;-81
2024/03/27 09:03:24;;;;;;;6.45;3.03;;;;;;;22.82;31.13;98274.41;4962884;28;20038;-81
2024/03/27 09:05:49;;;;;;;5.50;2.30;;;;;;;22.71;31.99;98266.06;4996214;28;20030;-79
2024/03/27 09:08:15;;;;;;;3.53;2.20;;;;;;;23.21;31.01;98272.72;4979200;28;20038;-81
2024/03/27 09:10:40;;;;;;;5.43;2.47;;;;;;;23.42;30.44;98274.25;4979406;28;20417;-82
2024/03/27 09:13:06;;;;;;;5.47;2.50;;;;;;;23.56;30.03;98278.53;4963815;28;20034;-83
2024/03/27 09:15:31;;;;;;;6.43;2.30;;;;;;;23.79;29.62;98269.19;4963742;28;20106;-83
2024/03/27 09:17:57;;;;;;;4.80;2.30;;;;;;;23.87;29.51;98276.16;4963143;28;20034;-83
2024/03/27 09:20:22;;;;;;;5.38;2.20;;;;;;;24.12;28.67;98269.00;4978940;28;20049;-83
2024/03/27 09:22:48;;;;;;;6.32;2.30;;;;;;;24.34;28.93;98272.13;4963312;28;20074;-83
2024/03/27 09:25:13;;;;;;;8.35;2.00;;;;;;;24.45;29.09;98253.75;4978988;28;20041;-83
2024/03/27 09:27:39;;;;;;;3.22;2.17;;;;;;;24.57;28.12;98254.72;4962774;28;20466;-81
2024/03/27 09:30:05;;;;;;;7.22;2.90;;;;;;;24.69;28.64;98254.81;4962086;28;20039;-80
2024/03/27 09:32:31;;;;;;;5.75;2.78;;;;;;;24.97;28.15;98261.50;4963080;28;20539;-78
2024/03/27 09:34:56;;;;;;;6.05;2.60;;;;;;;25.08;27.51;98248.25;4962721;28;20022;-81
2024/03/27 09:37:22;;;;;;;4.38;2.35;;;;;;;25.10;28.10;98254.16;4963133;28;20030;-80
2024/03/27 09:39:47;;;;;;;6.15;2.42;;;;;;;25.21;28.17;98257.16;4962459;28;20080;-80
2024/03/27 09:42:13;;;;;;;4.78;2.10;;;;;;;25.40;27.99;98245.41;4964047;28;20038;-81
2024/03/27 09:44:38;;;;;;;4.07;1.95;;;;;;;25.19;27.64;98251.19;4966809;28;20029;-81
2024/03/27 09:47:04;;;;;;;7.78;2.95;;;;;;;25.20;27.38;98255.50;4967958;28;20035;-82
2024/03/27 09:49:29;;;;;;;7.00;2.58;;;;;;;25.22;27.73;98256.91;4970368;28;20077;-81
2024/03/27 09:51:57;;;;;;;4.78;2.47;;;;;;;25.16;27.72;98256.97;4970819;28;20034;-81
2024/03/27 09:54:23;;;;;;;5.83;2.87;;;;;;;25.34;26.98;98250.84;4969399;28;20081;-83
2024/03/27 09:56:49;;;;;;;6.13;2.58;;;;;;;24.72;28.05;98246.38;4963063;28;20041;-81
2024/03/27 09:59:14;;;;;;;7.13;2.90;;;;;;;24.23;28.27;98262.16;4985862;28;20035;-82
2024/03/27 10:01:41;;;;;;;4.93;2.50;;;;;;;24.13;28.40;98265.31;4980327;28;20050;-83
2024/03/27 10:04:07;;;;;;;7.78;2.40;;;;;;;23.93;28.79;98259.28;4963819;28;20045;-81
2024/03/27 10:06:32;;;;;;;4.40;2.40;;;;;;;24.02;28.87;98258.81;4963239;28;20129;-82
2024/03/27 10:09:00;;;;;;;4.68;2.20;;;;;;;24.38;28.36;98245.81;4977627;28;20035;-82
2024/03/27 10:11:25;;;;;;;6.27;2.10;;;;;;;24.60;28.51;98245.47;4977435;28;20072;-81
2024/03/27 10:13:51;;;;;;;4.65;2.47;;;;;;;24.81;28.04;98260.22;4962830;28;20034;-84
2024/03/27 10:16:17;;;;;;;6.07;2.47;;;;;;;24.18;29.01;98256.66;4977879;28;20104;-87
2024/03/27 10:18:42;;;;;;;4.28;2.72;;;;;;;23.75;29.72;98252.81;4946793;28;20428;-84
2024/03/27 10:21:07;;;;;;;4.30;2.45;;;;;;;23.58;29.89;98257.81;4977437;28;20038;-83
2024/03/27 10:23:34;;;;;;;7.20;3.22;;;;;;;23.46;30.12;98257.66;4963349;28;20030;-83
2024/03/27 10:26:03;;;;;;;7.07;3.83;;;;;;;23.23;30.77;98260.84;4962272;28;20029;-84
2024/03/27 10:28:35;;;;;;;5.25;2.97;;;;;;;23.26;30.56;98259.59;4947138;28;20029;-86
2024/03/27 10:31:04;;;;;;;5.57;2.90;;;;;;;23.28;30.51;98254.88;4972862;28;20098;-86
2024/03/27 10:33:29;;;;;;;6.43;3.15;;;;;;;22.89;31.41;98251.28;4965687;28;20030;-86
2024/03/27 10:35:55;;;;;;;6.82;3.78;;;;;;;22.99;31.55;98251.66;4945085;28;20035;-81
2024/03/27 10:38:20;;;;;;;8.15;3.30;;;;;;;23.17;31.45;98251.03;4962196;28;20061;-81
2024/03/27 10:40:52;;;;;;;5.85;3.42;;;;;;;22.99;31.57;98259.63;4977957;28;20057;-81
2024/03/27 10:43:31;;;;;;;7.35;3.10;;;;;;;23.17;31.48;98255.53;4962434;28;20022;-82
2024/03/27 10:45:56;;;;;;;5.57;3.08;;;;;;;23.32;30.88;98242.75;4945076;28;20127;-83
2024/03/27 10:48:22;;;;;;;5.93;3.00;;;;;;;23.17;31.35;98248.38;4960814;28;20053;-83
2024/03/27 10:50:47;;;;;;;7.47;3.47;;;;;;;23.17;31.11;98259.00;4945042;28;20397;-83
2024/03/27 10:53:13;;;;;;;7.30;2.92;;;;;;;23.28;31.13;98245.03;4961242;28;20456;-83
2024/03/27 10:55:39;;;;;;;4.85;2.70;;;;;;;23.24;31.44;98254.47;4945315;28;20042;-83
2024/03/27 10:58:05;;;;;;;6.85;2.63;;;;;;;23.37;31.08;98247.47;4962694;28;20034;-83
2024/03/27 11:00:31;;;;;;;5.13;2.20;;;;;;;23.39;31.19;98229.41;4960311;28;20026;-84
2024/03/27 11:02:57;;;;;;;7.13;2.30;;;;;;;23.38;31.12;98225.13;4960940;28;20096;-83
2024/03/27 11:05:26;;;;;;;6.72;3.60;;;;;;;23.49;31.07;98227.94;4960705;28;20030;-84
2024/03/27 11:07:52;;;;;;;9.32;3.00;;;;;;;23.57;31.40;98234.06;4946126;28;20054;-85
2024/03/27 11:10:22;;;;;;;6.65;2.55;;;;;;;23.62;31.33;98227.03;4960793;28;20061;-81
2024/03/27 11:12:48;;;;;;;6.63;3.05;;;;;;;23.66;31.34;98235.44;4960911;28;20113;-82
2024/03/27 11:15:14;;;;;;;6.78;3.40;;;;;;;23.65;31.29;98221.28;4961570;28;20092;-85
2024/03/27 11:17:40;;;;;;;6.05;3.03;;;;;;;23.48;31.93;98218.31;4960841;28;20036;-86
2024/03/27 11:20:06;;;;;;;6.95;3.20;;;;;;;22.96;32.63;98217.47;4961500;28;20042;-83
2024/03/27 11:22:32;;;;;;;8.27;2.70;;;;;;;22.91;32.62;98220.78;4960952;28;20456;-78
2024/03/27 11:24:57;;;;;;;6.18;3.15;;;;;;;22.95;32.76;98218.50;4961695;28;20026;-82
2024/03/27 11:27:27;;;;;;;6.45;3.00;;;;;;;22.98;32.50;98214.59;4961050;28;20117;-83
2024/03/27 11:29:53;;;;;;;5.82;2.90;;;;;;;22.89;32.61;98212.16;4960609;28;20022;-84